Aérodrome :
LOGIN :

S'inscrire | Disclaimer

   EN    FR    IT 

 










Légende :    VFR   VFR Marginal   IFR   IFR Intensif   IFR Très Intensif
Visi : 
Plafond : 
>= 8 km
>= 3000ft
5 à 8 km
1000 à 3000 ft
1500m à 5 km
500 à 1000 ft
800 à 1500m
200 à 500 ft
< 800m
< 200 ft
Symboles :   Orages  Brouillard  Fortes neiges  Fortes précipitations  Vent > 20 kt
SIGMETs :   Divers  Orages  Givrage  Turbulence  Onde Orograph.  Cendres Volcan.






- Altitude de l'aérodrome : 191 ft
- Code IATA : RNB


ESDF - Ronneby

DERNIER METAR :
  • 130750Z 12008KT 9999 SCT010 BKN045 04/03 Q0992

METARs EXPIRÉS :
  • 130720Z 13008KT 9999 BKN010 BKN045 04/03 Q0992
  • 130650Z 14008KT 9999 BKN011 BKN043 04/03 Q0992
  • 130620Z 15010KT 9999 BKN012 BKN036 04/03 Q0993
  • 130550Z 14008KT 100V160 9999 -SHRA BKN013 BKN044 04/04 Q0993

TAF TAF ESDF
Valide du 13 à 06h jusqu'au 13 à 15h UTC


130540Z 1306/1315 12010KT 9999 BKN015
TEMPO 1306/1313 BKN008
BECMG 1313/1315 RA BKN006 RMK MIL



MET'MAP, la Météo Aéronautique d'un coup d'oeil ! - Copyright ORBIFLY Décembre 2007 - Disclaimer

ORBIFLY MET'MAP TEAM :

Programmation & Développement : Alexandra Zaïnal
Sur une idée originale de : Baudouin d'Aumeries
Assistance à la programmation : Marc-Olivier Méhu
Soutien technique & logistique : Manuel Goepfert

Contact : metmap@orbifly.com




SOURCES & CREDITS :

   NOAA